^^
Marion, Virginia Banner
 

Adwolf, VA. Station Historical Data
[ Providing Data Since 6/07/2007 ]
Station Historical Data
Daily Summary for October 14, 2017 Units:  Both    English   Metric
« Previous Day
Next Day »
Daily Weekly Monthly Yearly Custom
  High: Low: Average:
Temperature: 77.4 °F /  25.2 °C 52.3 °F /  11.3 °C 63.1 °F /  17.3 °C
Dew Point: 63.3 °F /  17.4 °C 50.0 °F /  10 °C 56.3 °F /  13.5 °C
Humidity: 93% 52% 80%
Wind Speed: 11.5mph /  18.5km/h - 2.4mph /  3.9km/h
Wind Gust: 11.5mph /  18.5km/h - -
Wind- - South
Pressure: 30.29 in /  1025.6 hPa 30.14 in /  1020.5 hPa -
Precipitation: 0.00 in /  0 mm    
Historical Graphs
 
 
Tabular Data for October 14, 2017
Time Temperature Dew Point Pressure Wind Wind Speed Wind Gust Humidity Rainfall Rate (Hourly) solar Conditions
00:03 59.1 °F /  15.1 °C 56.2 °F /  13.4 °C 30.22in /  1023.2hPa NE 1.2mph /  1.9km/h 1.2mph /  1.9km/h 90% 0.00in /  0mm WeatherDisplay:10.37 W/m2 OVC
00:08 58.9 °F /  14.9 °C 56.0 °F /  13.3 °C 30.22in /  1023.2hPa Calm     90% 0.00in /  0mm WeatherDisplay:10.37 W/m2 OVC
00:13 58.8 °F /  14.9 °C 55.9 °F /  13.3 °C 30.22in /  1023.2hPa Calm     90% 0.00in /  0mm WeatherDisplay:10.37 W/m2 OVC
00:18 58.6 °F /  14.8 °C 55.7 °F /  13.2 °C 30.22in /  1023.2hPa Calm     90% 0.00in /  0mm WeatherDisplay:10.37 W/m2 OVC
00:23 58.4 °F /  14.7 °C 55.5 °F /  13.1 °C 30.22in /  1023.2hPa Calm     90% 0.00in /  0mm WeatherDisplay:10.37 W/m2 OVC
00:28 58.3 °F /  14.6 °C 55.4 °F /  13 °C 30.22in /  1023.2hPa Calm     90% 0.00in /  0mm WeatherDisplay:10.37 W/m2 OVC
00:33 58.2 °F /  14.6 °C 55.6 °F /  13.1 °C 30.22in /  1023.2hPa Calm     91% 0.00in /  0mm WeatherDisplay:10.37 W/m2 OVC
00:38 58.1 °F /  14.5 °C 55.5 °F /  13.1 °C 30.23in /  1023.6hPa Calm     91% 0.00in /  0mm WeatherDisplay:10.37 W/m2 OVC
00:43 57.9 °F /  14.4 °C 55.3 °F /  12.9 °C 30.22in /  1023.2hPa Calm     91% 0.00in /  0mm WeatherDisplay:10.37 W/m2 OVC
00:48 57.8 °F /  14.3 °C 55.2 °F /  12.9 °C 30.22in /  1023.2hPa Calm     91% 0.00in /  0mm WeatherDisplay:10.37 W/m2 OVC
00:53 57.8 °F /  14.3 °C 55.2 °F /  12.9 °C 30.22in /  1023.2hPa Calm     91% 0.00in /  0mm WeatherDisplay:10.37 W/m2 OVC
00:58 57.8 °F /  14.3 °C 55.2 °F /  12.9 °C 30.22in /  1023.2hPa Calm     91% 0.00in /  0mm WeatherDisplay:10.37 W/m2 OVC
01:03 57.7 °F /  14.3 °C 55.1 °F /  12.8 °C 30.22in /  1023.2hPa Calm     91% 0.00in /  0mm WeatherDisplay:10.37 W/m2 OVC
01:08 57.7 °F /  14.3 °C 55.1 °F /  12.8 °C 30.22in /  1023.2hPa Calm     91% 0.00in /  0mm WeatherDisplay:10.37 W/m2 OVC
01:13 57.6 °F /  14.2 °C 55.0 °F /  12.8 °C 30.22in /  1023.2hPa Calm     91% 0.00in /  0mm WeatherDisplay:10.37 W/m2 OVC
01:18 57.4 °F /  14.1 °C 54.8 °F /  12.7 °C 30.22in /  1023.2hPa Calm     91% 0.00in /  0mm WeatherDisplay:10.37 W/m2 OVC
01:23 57.3 °F /  14.1 °C 54.7 °F /  12.6 °C 30.22in /  1023.2hPa Calm     91% 0.00in /  0mm WeatherDisplay:10.37 W/m2 OVC
01:28 57.2 °F /  14 °C 54.6 °F /  12.6 °C 30.22in /  1023.2hPa Calm     91% 0.00in /  0mm WeatherDisplay:10.37 W/m2 OVC
01:33 57.0 °F /  13.9 °C 54.4 °F /  12.4 °C 30.22in /  1023.2hPa Calm     91% 0.00in /  0mm WeatherDisplay:10.37 W/m2 OVC
01:38 56.8 °F /  13.8 °C 54.2 °F /  12.3 °C 30.22in /  1023.2hPa Calm     91% 0.00in /  0mm WeatherDisplay:10.37 W/m2 OVC
01:43 56.7 °F /  13.7 °C 54.1 °F /  12.3 °C 30.22in /  1023.2hPa Calm     91% 0.00in /  0mm WeatherDisplay:10.37 W/m2 OVC
01:48 56.5 °F /  13.6 °C 53.9 °F /  12.2 °C 30.22in /  1023.2hPa Calm     91% 0.00in /  0mm WeatherDisplay:10.37 W/m2 OVC
01:53 56.4 °F /  13.6 °C 53.8 °F /  12.1 °C 30.22in /  1023.2hPa Calm     91% 0.00in /  0mm WeatherDisplay:10.37 W/m2 OVC
01:58 56.3 °F /  13.5 °C 54.0 °F /  12.2 °C 30.22in /  1023.2hPa Calm     92% 0.00in /  0mm WeatherDisplay:10.37 W/m2 OVC
02:03 56.2 °F /  13.4 °C 53.9 °F /  12.2 °C 30.22in /  1023.2hPa Calm     92% 0.00in /  0mm WeatherDisplay:10.37 W/m2 OVC
02:08 56.0 °F /  13.3 °C 53.7 °F /  12.1 °C 30.22in /  1023.2hPa Calm     92% 0.00in /  0mm WeatherDisplay:10.37 W/m2 OVC
02:13 55.8 °F /  13.2 °C 53.5 °F /  11.9 °C 30.22in /  1023.2hPa Calm     92% 0.00in /  0mm WeatherDisplay:10.37 W/m2 OVC
02:18 55.5 °F /  13.1 °C 53.2 °F /  11.8 °C 30.22in /  1023.2hPa Calm     92% 0.00in /  0mm WeatherDisplay:10.37 W/m2 OVC
02:23 55.4 °F /  13 °C 53.1 °F /  11.7 °C 30.22in /  1023.2hPa Calm     92% 0.00in /  0mm WeatherDisplay:10.37 W/m2 OVC
02:28 55.2 °F /  12.9 °C 52.9 °F /  11.6 °C 30.22in /  1023.2hPa Calm     92% 0.00in /  0mm WeatherDisplay:10.37 W/m2 OVC
02:33 55.1 °F /  12.8 °C 52.8 °F /  11.6 °C 30.22in /  1023.2hPa Calm     92% 0.00in /  0mm WeatherDisplay:10.37 W/m2 OVC
02:38 54.9 °F /  12.7 °C 52.6 °F /  11.4 °C 30.22in /  1023.2hPa Calm     92% 0.00in /  0mm WeatherDisplay:10.37 W/m2 OVC
02:43 54.8 °F /  12.7 °C 52.5 °F /  11.4 °C 30.22in /  1023.2hPa Calm     92% 0.00in /  0mm WeatherDisplay:10.37 W/m2 OVC
02:48 54.6 °F /  12.6 °C 52.3 °F /  11.3 °C 30.22in /  1023.2hPa Calm     92% 0.00in /  0mm WeatherDisplay:10.37 W/m2 OVC
02:53 54.4 °F /  12.4 °C 52.1 °F /  11.2 °C 30.22in /  1023.2hPa Calm     92% 0.00in /  0mm WeatherDisplay:10.37 W/m2 OVC
02:58 54.3 °F /  12.4 °C 52.0 °F /  11.1 °C 30.22in /  1023.2hPa Calm     92% 0.00in /  0mm WeatherDisplay:10.37 W/m2 OVC
03:03 54.2 °F /  12.3 °C 51.9 °F /  11.1 °C 30.22in /  1023.2hPa Calm     92% 0.00in /  0mm WeatherDisplay:10.37 W/m2 OVC
03:08 54.2 °F /  12.3 °C 51.9 °F /  11.1 °C 30.22in /  1023.2hPa Calm     92% 0.00in /  0mm WeatherDisplay:10.37 W/m2 OVC
03:13 54.3 °F /  12.4 °C 52.0 °F /  11.1 °C 30.22in /  1023.2hPa Calm     92% 0.00in /  0mm WeatherDisplay:10.37 W/m2 OVC
03:18 54.2 °F /  12.3 °C 51.9 °F /  11.1 °C 30.22in /  1023.2hPa Calm     92% 0.00in /  0mm WeatherDisplay:10.37 W/m2 OVC
03:23 54.2 °F /  12.3 °C 51.9 °F /  11.1 °C 30.22in /  1023.2hPa Calm     92% 0.00in /  0mm WeatherDisplay:10.37 W/m2 OVC
03:28 54.1 °F /  12.3 °C 51.8 °F /  11 °C 30.22in /  1023.2hPa Calm     92% 0.00in /  0mm WeatherDisplay:10.37 W/m2 OVC
03:33 53.9 °F /  12.2 °C 51.6 °F /  10.9 °C 30.22in /  1023.2hPa Calm     92% 0.00in /  0mm WeatherDisplay:10.37 W/m2 OVC
03:38 53.9 °F /  12.2 °C 51.6 °F /  10.9 °C 30.22in /  1023.2hPa Calm     92% 0.00in /  0mm WeatherDisplay:10.37 W/m2 OVC
03:43 53.8 °F /  12.1 °C 51.5 °F /  10.8 °C 30.22in /  1023.2hPa Calm     92% 0.00in /  0mm WeatherDisplay:10.37 W/m2 OVC
03:53 53.6 °F /  12 °C 51.3 °F /  10.7 °C 30.22in /  1023.2hPa Calm     92% 0.00in /  0mm WeatherDisplay:10.37 W/m2 OVC
03:58 53.5 °F /  11.9 °C 51.2 °F /  10.7 °C 30.22in /  1023.2hPa Calm     92% 0.00in /  0mm WeatherDisplay:10.37 W/m2 OVC
04:03 53.4 °F /  11.9 °C 51.1 °F /  10.6 °C 30.22in /  1023.2hPa Calm     92% 0.00in /  0mm WeatherDisplay:10.37 W/m2 OVC
04:08 53.3 °F /  11.8 °C 51.0 °F /  10.6 °C 30.22in /  1023.2hPa Calm     92% 0.00in /  0mm WeatherDisplay:10.37 W/m2 OVC
04:13 53.3 °F /  11.8 °C 51.0 °F /  10.6 °C 30.23in /  1023.6hPa Calm     92% 0.00in /  0mm WeatherDisplay:10.37 W/m2 OVC
04:18 53.2 °F /  11.8 °C 50.9 °F /  10.5 °C 30.22in /  1023.2hPa Calm     92% 0.00in /  0mm WeatherDisplay:10.37 W/m2 OVC
04:23 53.1 °F /  11.7 °C 50.8 °F /  10.4 °C 30.23in /  1023.6hPa Calm     92% 0.00in /  0mm WeatherDisplay:10.37 W/m2 OVC
04:28 53.0 °F /  11.7 °C 50.7 °F /  10.4 °C 30.23in /  1023.6hPa Calm     92% 0.00in /  0mm WeatherDisplay:10.37 W/m2 OVC
04:33 52.7 °F /  11.5 °C 50.4 °F /  10.2 °C 30.23in /  1023.6hPa Calm     92% 0.00in /  0mm WeatherDisplay:10.37 W/m2 OVC
04:38 52.6 °F /  11.4 °C 50.3 °F /  10.2 °C 30.23in /  1023.6hPa Calm     92% 0.00in /  0mm WeatherDisplay:10.37 W/m2 OVC
04:43 52.5 °F /  11.4 °C 50.2 °F /  10.1 °C 30.23in /  1023.6hPa Calm     92% 0.00in /  0mm WeatherDisplay:10.37 W/m2 OVC
04:48 52.5 °F /  11.4 °C 50.2 °F /  10.1 °C 30.23in /  1023.6hPa Calm     92% 0.00in /  0mm WeatherDisplay:10.37 W/m2 OVC
04:53 52.4 °F /  11.3 °C 50.1 °F /  10.1 °C 30.23in /  1023.6hPa Calm     92% 0.00in /  0mm WeatherDisplay:10.37 W/m2 OVC
04:58 52.3 °F /  11.3 °C 50.0 °F /  10 °C 30.23in /  1023.6hPa Calm     92% 0.00in /  0mm WeatherDisplay:10.37 W/m2 OVC
05:03 52.3 °F /  11.3 °C 50.0 °F /  10 °C 30.23in /  1023.6hPa Calm     92% 0.00in /  0mm WeatherDisplay:10.37 W/m2 OVC
05:08 52.3 °F /  11.3 °C 50.0 °F /  10 °C 30.24in /  1023.9hPa Calm     92% 0.00in /  0mm WeatherDisplay:10.37 W/m2 OVC
05:13 52.3 °F /  11.3 °C 50.0 °F /  10 °C 30.24in /  1023.9hPa Calm     92% 0.00in /  0mm WeatherDisplay:10.37 W/m2 OVC
05:18 52.4 °F /  11.3 °C 50.1 °F /  10.1 °C 30.24in /  1023.9hPa Calm     92% 0.00in /  0mm WeatherDisplay:10.37 W/m2 OVC
05:23 52.5 °F /  11.4 °C 50.2 °F /  10.1 °C 30.24in /  1023.9hPa Calm     92% 0.00in /  0mm WeatherDisplay:10.37 W/m2 OVC
05:28 52.6 °F /  11.4 °C 50.3 °F /  10.2 °C 30.24in /  1023.9hPa Calm     92% 0.00in /  0mm WeatherDisplay:10.37 W/m2 OVC
05:33 52.7 °F /  11.5 °C 50.4 °F /  10.2 °C 30.24in /  1023.9hPa Calm     92% 0.00in /  0mm WeatherDisplay:10.37 W/m2 OVC
05:38 52.8 °F /  11.6 °C 50.5 °F /  10.3 °C 30.24in /  1023.9hPa Calm     92% 0.00in /  0mm WeatherDisplay:10.37 W/m2 OVC
05:43 53.1 °F /  11.7 °C 50.8 °F /  10.4 °C 30.24in /  1023.9hPa Calm     92% 0.00in /  0mm WeatherDisplay:10.37 W/m2 OVC
05:48 53.3 °F /  11.8 °C 51.0 °F /  10.6 °C 30.24in /  1023.9hPa Calm     92% 0.00in /  0mm WeatherDisplay:10.37 W/m2 OVC
05:53 53.4 °F /  11.9 °C 51.1 °F /  10.6 °C 30.24in /  1023.9hPa Calm     92% 0.00in /  0mm WeatherDisplay:10.37 W/m2 OVC
05:58 53.6 °F /  12 °C 51.3 °F /  10.7 °C 30.24in /  1023.9hPa Calm     92% 0.00in /  0mm WeatherDisplay:10.37 W/m2 OVC
06:03 54.0 °F /  12.2 °C 51.7 °F /  10.9 °C 30.24in /  1023.9hPa Calm     92% 0.00in /  0mm WeatherDisplay:10.37 W/m2 OVC
06:08 54.2 °F /  12.3 °C 51.9 °F /  11.1 °C 30.24in /  1023.9hPa Calm     92% 0.00in /  0mm WeatherDisplay:10.37 W/m2 OVC
06:13 54.4 °F /  12.4 °C 52.1 °F /  11.2 °C 30.24in /  1023.9hPa Calm     92% 0.00in /  0mm WeatherDisplay:10.37 W/m2 OVC
06:18 54.5 °F /  12.5 °C 52.2 °F /  11.2 °C 30.25in /  1024.3hPa Calm     92% 0.00in /  0mm WeatherDisplay:10.37 W/m2 OVC
06:19 54.5 °F /  12.5 °C 52.2 °F /  11.2 °C 30.25in /  1024.3hPa Calm     92% 0.00in /  0mm WeatherDisplay:10.37 W/m2 OVC
06:24 54.6 °F /  12.6 °C 52.3 °F /  11.3 °C 30.25in /  1024.3hPa Calm     92% 0.00in /  0mm WeatherDisplay:10.37 W/m2 OVC
06:29 54.7 °F /  12.6 °C 52.4 °F /  11.3 °C 30.25in /  1024.3hPa Calm     92% 0.00in /  0mm WeatherDisplay:10.37 W/m2 OVC
06:34 54.8 °F /  12.7 °C 52.5 °F /  11.4 °C 30.25in /  1024.3hPa Calm     92% 0.00in /  0mm WeatherDisplay:10.37 W/m2 OVC
06:39 54.9 °F /  12.7 °C 52.6 °F /  11.4 °C 30.24in /  1023.9hPa Calm     92% 0.00in /  0mm WeatherDisplay:10.37 W/m2 OVC
06:44 55.0 °F /  12.8 °C 52.7 °F /  11.5 °C 30.25in /  1024.3hPa Calm     92% 0.00in /  0mm WeatherDisplay:10.37 W/m2 OVC
06:49 55.1 °F /  12.8 °C 52.8 °F /  11.6 °C 30.25in /  1024.3hPa Calm     92% 0.00in /  0mm WeatherDisplay:10.37 W/m2 OVC
06:54 55.2 °F /  12.9 °C 52.9 °F /  11.6 °C 30.25in /  1024.3hPa Calm     92% 0.00in /  0mm WeatherDisplay:10.37 W/m2
06:59 55.4 °F /  13 °C 53.1 °F /  11.7 °C 30.25in /  1024.3hPa Calm     92% 0.00in /  0mm WeatherDisplay:10.37 W/m2 OVC
07:04 55.5 °F /  13.1 °C 53.2 °F /  11.8 °C 30.25in /  1024.3hPa Calm     92% 0.00in /  0mm WeatherDisplay:10.37 W/m2 OVC
07:09 55.6 °F /  13.1 °C 53.3 °F /  11.8 °C 30.25in /  1024.3hPa Calm     92% 0.00in /  0mm WeatherDisplay:10.37 W/m2 OVC
07:14 55.7 °F /  13.2 °C 53.4 °F /  11.9 °C 30.25in /  1024.3hPa Calm     92% 0.00in /  0mm WeatherDisplay:10.37 W/m2 OVC
07:19 55.7 °F /  13.2 °C 53.4 °F /  11.9 °C 30.25in /  1024.3hPa Calm     92% 0.00in /  0mm WeatherDisplay:10.37 W/m2 OVC
07:24 55.7 °F /  13.2 °C 53.4 °F /  11.9 °C 30.25in /  1024.3hPa Calm     92% 0.00in /  0mm WeatherDisplay:10.37 W/m2 OVC
07:29 55.7 °F /  13.2 °C 53.4 °F /  11.9 °C 30.26in /  1024.6hPa NE 3.0mph /  4.8km/h 3.0mph /  4.8km/h 92% 0.00in /  0mm WeatherDisplay:10.37 W/m2 OVC
07:34 55.6 °F /  13.1 °C 53.3 °F /  11.8 °C 30.26in /  1024.6hPa NE 2.3mph /  3.7km/h 2.3mph /  3.7km/h 92% 0.00in /  0mm WeatherDisplay:10.37 W/m2 OVC
07:39 55.6 °F /  13.1 °C 53.3 °F /  11.8 °C 30.26in /  1024.6hPa NE 2.3mph /  3.7km/h 2.3mph /  3.7km/h 92% 0.00in /  0mm WeatherDisplay:10.37 W/m2 OVC
07:44 55.6 °F /  13.1 °C 53.3 °F /  11.8 °C 30.26in /  1024.6hPa NE 2.3mph /  3.7km/h 2.3mph /  3.7km/h 92% 0.00in /  0mm WeatherDisplay:10.37 W/m2 OVC
07:49 55.5 °F /  13.1 °C 53.2 °F /  11.8 °C 30.26in /  1024.6hPa Calm     92% 0.00in /  0mm WeatherDisplay:10.37 W/m2 OVC
07:54 55.5 °F /  13.1 °C 53.2 °F /  11.8 °C 30.26in /  1024.6hPa NE 2.0mph /  3.2km/h   92% 0.00in /  0mm WeatherDisplay:10.37 W/m2 OVC
07:59 55.6 °F /  13.1 °C 53.3 °F /  11.8 °C 30.26in /  1024.6hPa NE 2.0mph /  3.2km/h 2.0mph /  3.2km/h 92% 0.00in /  0mm WeatherDisplay:10.37 W/m2 OVC
08:04 55.6 °F /  13.1 °C 53.3 °F /  11.8 °C 30.26in /  1024.6hPa NE 2.3mph /  3.7km/h 2.3mph /  3.7km/h 92% 0.00in /  0mm WeatherDisplay:10.37 W/m2 OVC
08:09 55.6 °F /  13.1 °C 53.3 °F /  11.8 °C 30.27in /  1024.9hPa NE 2.3mph /  3.7km/h 2.3mph /  3.7km/h 92% 0.00in /  0mm WeatherDisplay:10.37 W/m2 OVC
08:14 55.7 °F /  13.2 °C 53.4 °F /  11.9 °C 30.27in /  1024.9hPa NE 3.0mph /  4.8km/h 3.0mph /  4.8km/h 92% 0.00in /  0mm WeatherDisplay:10.37 W/m2 OVC
08:19 55.7 °F /  13.2 °C 53.4 °F /  11.9 °C 30.27in /  1024.9hPa Calm     92% 0.00in /  0mm WeatherDisplay:10.37 W/m2 OVC
08:24 55.7 °F /  13.2 °C 53.4 °F /  11.9 °C 30.27in /  1024.9hPa NE 2.3mph /  3.7km/h 2.3mph /  3.7km/h 92% 0.00in /  0mm WeatherDisplay:10.37 W/m2 OVC
08:29 55.8 °F /  13.2 °C 53.5 °F /  11.9 °C 30.27in /  1024.9hPa NE 2.3mph /  3.7km/h 2.3mph /  3.7km/h 92% 0.00in /  0mm WeatherDisplay:10.37 W/m2 OVC
08:34 55.8 °F /  13.2 °C 53.5 °F /  11.9 °C 30.27in /  1024.9hPa NE 3.5mph /  5.6km/h 3.5mph /  5.6km/h 92% 0.00in /  0mm WeatherDisplay:10.37 W/m2 OVC
08:39 55.9 °F /  13.3 °C 53.6 °F /  12 °C 30.28in /  1025.3hPa NE 2.3mph /  3.7km/h 2.3mph /  3.7km/h 92% 0.00in /  0mm WeatherDisplay:10.37 W/m2 OVC
08:44 56.0 °F /  13.3 °C 53.7 °F /  12.1 °C 30.28in /  1025.3hPa NE 2.3mph /  3.7km/h 2.3mph /  3.7km/h 92% 0.00in /  0mm WeatherDisplay:10.37 W/m2 OVC
08:49 56.1 °F /  13.4 °C 53.8 °F /  12.1 °C 30.28in /  1025.3hPa ENE 2.3mph /  3.7km/h 2.3mph /  3.7km/h 92% 0.00in /  0mm WeatherDisplay:10.37 W/m2 OVC
08:54 56.2 °F /  13.4 °C 53.9 °F /  12.2 °C 30.28in /  1025.3hPa ENE 2.3mph /  3.7km/h 2.3mph /  3.7km/h 92% 0.00in /  0mm WeatherDisplay:10.37 W/m2 OVC
08:59 56.2 °F /  13.4 °C 53.9 °F /  12.2 °C 30.28in /  1025.3hPa ENE 3.0mph /  4.8km/h 3.0mph /  4.8km/h 92% 0.00in /  0mm WeatherDisplay:10.37 W/m2 OVC
09:04 56.4 °F /  13.6 °C 54.1 °F /  12.3 °C 30.28in /  1025.3hPa ENE 2.3mph /  3.7km/h 2.3mph /  3.7km/h 92% 0.00in /  0mm WeatherDisplay:10.37 W/m2 OVC
09:09 56.5 °F /  13.6 °C 54.2 °F /  12.3 °C 30.28in /  1025.3hPa ENE 3.5mph /  5.6km/h 3.5mph /  5.6km/h 92% 0.00in /  0mm WeatherDisplay:10.37 W/m2 OVC
09:14 56.6 °F /  13.7 °C 54.3 °F /  12.4 °C 30.28in /  1025.3hPa ENE 3.5mph /  5.6km/h 3.5mph /  5.6km/h 92% 0.00in /  0mm WeatherDisplay:10.37 W/m2 OVC
09:19 56.5 °F /  13.6 °C 54.2 °F /  12.3 °C 30.28in /  1025.3hPa ENE 3.5mph /  5.6km/h 3.5mph /  5.6km/h 92% 0.00in /  0mm WeatherDisplay:10.37 W/m2 OVC
09:24 56.4 °F /  13.6 °C 54.1 °F /  12.3 °C 30.29in /  1025.6hPa ENE 1.2mph /  1.9km/h   92% 0.00in /  0mm WeatherDisplay:10.37 W/m2 OVC
09:29 56.5 °F /  13.6 °C 54.2 °F /  12.3 °C 30.29in /  1025.6hPa Calm     92% 0.00in /  0mm WeatherDisplay:10.37 W/m2 OVC
09:34 56.7 °F /  13.7 °C 54.4 °F /  12.4 °C 30.29in /  1025.6hPa ENE 2.0mph /  3.2km/h 2.0mph /  3.2km/h 92% 0.00in /  0mm WeatherDisplay:10.37 W/m2 OVC
09:39 57.1 °F /  13.9 °C 54.8 °F /  12.7 °C 30.29in /  1025.6hPa ENE 3.5mph /  5.6km/h 3.5mph /  5.6km/h 92% 0.00in /  0mm WeatherDisplay:10.37 W/m2 OVC
09:44 57.3 °F /  14.1 °C 55.0 °F /  12.8 °C 30.29in /  1025.6hPa Calm     92% 0.00in /  0mm WeatherDisplay:10.37 W/m2 OVC
09:49 57.5 °F /  14.2 °C 55.2 °F /  12.9 °C 30.29in /  1025.6hPa ENE 3.0mph /  4.8km/h 3.0mph /  4.8km/h 92% 0.00in /  0mm WeatherDisplay:10.37 W/m2 OVC
09:54 57.7 °F /  14.3 °C 55.7 °F /  13.2 °C 30.29in /  1025.6hPa ENE 2.3mph /  3.7km/h 2.3mph /  3.7km/h 93% 0.00in /  0mm WeatherDisplay:10.37 W/m2 OVC
09:59 58.0 °F /  14.4 °C 55.7 °F /  13.2 °C 30.29in /  1025.6hPa ENE 2.3mph /  3.7km/h 2.3mph /  3.7km/h 92% 0.00in /  0mm WeatherDisplay:10.37 W/m2 OVC
10:04 58.2 °F /  14.6 °C 55.9 °F /  13.3 °C 30.29in /  1025.6hPa ENE 3.5mph /  5.6km/h 3.5mph /  5.6km/h 92% 0.00in /  0mm WeatherDisplay:10.37 W/m2 OVC
10:09 58.0 °F /  14.4 °C 55.7 °F /  13.2 °C 30.29in /  1025.6hPa ENE 3.5mph /  5.6km/h 3.5mph /  5.6km/h 92% 0.00in /  0mm WeatherDisplay:10.37 W/m2 OVC
10:14 58.3 °F /  14.6 °C 56.0 °F /  13.3 °C 30.29in /  1025.6hPa ENE 3.5mph /  5.6km/h 3.5mph /  5.6km/h 92% 0.00in /  0mm WeatherDisplay:10.37 W/m2 OVC
10:19 58.5 °F /  14.7 °C 56.2 °F /  13.4 °C 30.29in /  1025.6hPa ENE 1.2mph /  1.9km/h 1.2mph /  1.9km/h 92% 0.00in /  0mm WeatherDisplay:10.37 W/m2 OVC
10:24 58.6 °F /  14.8 °C 56.3 °F /  13.5 °C 30.29in /  1025.6hPa ENE 2.3mph /  3.7km/h 2.3mph /  3.7km/h 92% 0.00in /  0mm WeatherDisplay:10.37 W/m2 OVC
10:29 59.3 °F /  15.2 °C 57.0 °F /  13.9 °C 30.28in /  1025.3hPa ENE 2.3mph /  3.7km/h 2.3mph /  3.7km/h 92% 0.00in /  0mm WeatherDisplay:10.37 W/m2 BKN
10:34 60.0 °F /  15.6 °C 57.7 °F /  14.3 °C 30.28in /  1025.3hPa ENE 2.3mph /  3.7km/h 2.3mph /  3.7km/h 92% 0.00in /  0mm WeatherDisplay:10.37 W/m2 BKN
10:39 60.7 °F /  15.9 °C 58.4 °F /  14.7 °C 30.28in /  1025.3hPa ENE 3.0mph /  4.8km/h 3.0mph /  4.8km/h 92% 0.00in /  0mm WeatherDisplay:10.37 W/m2 BKN
10:44 61.4 °F /  16.3 °C 59.1 °F /  15.1 °C 30.28in /  1025.3hPa ENE 2.3mph /  3.7km/h 2.3mph /  3.7km/h 92% 0.00in /  0mm WeatherDisplay:10.37 W/m2 CLR
10:49 62.1 °F /  16.7 °C 59.1 °F /  15.1 °C 30.28in /  1025.3hPa ENE 2.3mph /  3.7km/h 2.3mph /  3.7km/h 90% 0.00in /  0mm WeatherDisplay:10.37 W/m2 CLR
10:54 62.6 °F /  17 °C 59.3 °F /  15.2 °C 30.27in /  1024.9hPa ENE 2.3mph /  3.7km/h 2.3mph /  3.7km/h 89% 0.00in /  0mm WeatherDisplay:10.37 W/m2 CLR
10:59 63.7 °F /  17.6 °C 59.8 °F /  15.4 °C 30.27in /  1024.9hPa ENE 2.3mph /  3.7km/h 2.3mph /  3.7km/h 87% 0.00in /  0mm WeatherDisplay:10.37 W/m2 CLR
11:04 64.6 °F /  18.1 °C 60.3 °F /  15.7 °C 30.27in /  1024.9hPa Calm     86% 0.00in /  0mm WeatherDisplay:10.37 W/m2 CLR
11:09 65.6 °F /  18.7 °C 61.0 °F /  16.1 °C 30.27in /  1024.9hPa Calm     85% 0.00in /  0mm WeatherDisplay:10.37 W/m2 CLR
11:14 66.4 °F /  19.1 °C 61.1 °F /  16.2 °C 30.27in /  1024.9hPa ENE 1.0mph /  1.6km/h   83% 0.00in /  0mm WeatherDisplay:10.37 W/m2 CLR
11:19 67.6 °F /  19.8 °C 61.6 °F /  16.4 °C 30.26in /  1024.6hPa SW 3.5mph /  5.6km/h 3.5mph /  5.6km/h 81% 0.00in /  0mm WeatherDisplay:10.37 W/m2 CLR
11:24 68.2 °F /  20.1 °C 61.4 °F /  16.3 °C 30.27in /  1024.9hPa SSW 2.3mph /  3.7km/h 2.3mph /  3.7km/h 79% 0.00in /  0mm WeatherDisplay:10.37 W/m2 CLR
11:29 68.4 °F /  20.2 °C 61.6 °F /  16.4 °C 30.27in /  1024.9hPa WSW 6.0mph /  9.7km/h 6.0mph /  9.7km/h 79% 0.00in /  0mm WeatherDisplay:10.37 W/m2 CLR
11:34 68.1 °F /  20.1 °C 61.0 °F /  16.1 °C 30.26in /  1024.6hPa SW 5.8mph /  9.3km/h 5.8mph /  9.3km/h 78% 0.00in /  0mm WeatherDisplay:10.37 W/m2 CLR
11:39 68.1 °F /  20.1 °C 61.3 °F /  16.3 °C 30.26in /  1024.6hPa SW 5.8mph /  9.3km/h 5.8mph /  9.3km/h 79% 0.00in /  0mm WeatherDisplay:10.37 W/m2 CLR
11:44 69.3 °F /  20.7 °C 62.5 °F /  16.9 °C 30.26in /  1024.6hPa SSW 4.0mph /  6.4km/h 4.0mph /  6.4km/h 79% 0.00in /  0mm WeatherDisplay:10.37 W/m2 SCT
11:49 69.7 °F /  20.9 °C 62.2 °F /  16.8 °C 30.26in /  1024.6hPa SW 5.8mph /  9.3km/h 5.8mph /  9.3km/h 77% 0.00in /  0mm WeatherDisplay:10.37 W/m2 SCT
11:54 69.9 °F /  21.1 °C 62.7 °F /  17.1 °C 30.26in /  1024.6hPa SSW 3.0mph /  4.8km/h 3.0mph /  4.8km/h 78% 0.00in /  0mm WeatherDisplay:10.37 W/m2 SCT
11:59 70.2 °F /  21.2 °C 63.0 °F /  17.2 °C 30.26in /  1024.6hPa SW 6.0mph /  9.7km/h 6.0mph /  9.7km/h 78% 0.00in /  0mm WeatherDisplay:10.37 W/m2 SCT
12:04 70.4 °F /  21.3 °C 62.8 °F /  17.1 °C 30.26in /  1024.6hPa SSW 7.0mph /  11.3km/h 7.0mph /  11.3km/h 77% 0.00in /  0mm WeatherDisplay:10.37 W/m2 SCT
12:09 70.8 °F /  21.6 °C 62.9 °F /  17.2 °C 30.25in /  1024.3hPa SW 4.6mph /  7.4km/h 4.6mph /  7.4km/h 76% 0.00in /  0mm WeatherDisplay:10.37 W/m2 SCT
12:14 71.1 °F /  21.7 °C 63.1 °F /  17.3 °C 30.25in /  1024.3hPa SW 10.0mph /  16.1km/h 10.0mph /  16.1km/h 76% 0.00in /  0mm WeatherDisplay:10.37 W/m2 SCT
12:19 70.1 °F /  21.2 °C 62.2 °F /  16.8 °C 30.25in /  1024.3hPa SW 10.4mph /  16.7km/h 10.4mph /  16.7km/h 76% 0.00in /  0mm WeatherDisplay:10.37 W/m2 SCT
12:24 70.1 °F /  21.2 °C 62.2 °F /  16.8 °C 30.25in /  1024.3hPa SW 10.4mph /  16.7km/h 10.4mph /  16.7km/h 76% 0.00in /  0mm WeatherDisplay:10.37 W/m2 SCT
12:29 70.2 °F /  21.2 °C 62.3 °F /  16.8 °C 30.25in /  1024.3hPa WSW 10.4mph /  16.7km/h 10.4mph /  16.7km/h 76% 0.00in /  0mm WeatherDisplay:10.37 W/m2 SCT
12:34 71.1 °F /  21.7 °C 62.8 °F /  17.1 °C 30.25in /  1024.3hPa West 6.0mph /  9.7km/h 6.0mph /  9.7km/h 75% 0.00in /  0mm WeatherDisplay:10.37 W/m2 SCT
12:39 71.2 °F /  21.8 °C 62.1 °F /  16.7 °C 30.25in /  1024.3hPa SSW 10.4mph /  16.7km/h 10.4mph /  16.7km/h 73% 0.00in /  0mm WeatherDisplay:10.37 W/m2 SCT
12:44 71.2 °F /  21.8 °C 62.5 °F /  16.9 °C 30.25in /  1024.3hPa SSW 5.8mph /  9.3km/h 5.8mph /  9.3km/h 74% 0.00in /  0mm WeatherDisplay:10.37 W/m2 SCT
12:49 71.8 °F /  22.1 °C 63.1 °F /  17.3 °C 30.24in /  1023.9hPa SW 8.0mph /  12.9km/h 8.0mph /  12.9km/h 74% 0.00in /  0mm WeatherDisplay:10.37 W/m2 SCT
12:54 72.5 °F /  22.5 °C 63.0 °F /  17.2 °C 30.24in /  1023.9hPa SE 5.0mph /  8km/h 5.0mph /  8km/h 72% 0.00in /  0mm WeatherDisplay:10.37 W/m2 SCT
12:59 72.8 °F /  22.7 °C 63.2 °F /  17.3 °C 30.23in /  1023.6hPa SSW 3.5mph /  5.6km/h 3.5mph /  5.6km/h 72% 0.00in /  0mm WeatherDisplay:10.37 W/m2 SCT
13:04 73.4 °F /  23 °C 62.6 °F /  17 °C 30.23in /  1023.6hPa SSW 9.0mph /  14.5km/h 9.0mph /  14.5km/h 69% 0.00in /  0mm WeatherDisplay:10.37 W/m2 CLR
13:09 73.5 °F /  23.1 °C 63.1 °F /  17.3 °C 30.23in /  1023.6hPa WSW 5.0mph /  8km/h 5.0mph /  8km/h 70% 0.00in /  0mm WeatherDisplay:10.37 W/m2 CLR
13:14 74.1 °F /  23.4 °C 63.3 °F /  17.4 °C 30.23in /  1023.6hPa SSW 5.0mph /  8km/h 5.0mph /  8km/h 69% 0.00in /  0mm WeatherDisplay:10.37 W/m2 CLR
13:19 74.4 °F /  23.6 °C 62.7 °F /  17.1 °C 30.22in /  1023.2hPa West 7.0mph /  11.3km/h 7.0mph /  11.3km/h 67% 0.00in /  0mm WeatherDisplay:10.37 W/m2 CLR
13:24 74.0 °F /  23.3 °C 61.9 °F /  16.6 °C 30.22in /  1023.2hPa SSW 9.2mph /  14.8km/h 9.2mph /  14.8km/h 66% 0.00in /  0mm WeatherDisplay:10.37 W/m2 SCT
13:29 74.3 °F /  23.5 °C 62.2 °F /  16.8 °C 30.21in /  1022.9hPa West 5.0mph /  8km/h 5.0mph /  8km/h 66% 0.00in /  0mm WeatherDisplay:10.37 W/m2 SCT
13:34 74.5 °F /  23.6 °C 62.0 °F /  16.7 °C 30.21in /  1022.9hPa WSW 11.5mph /  18.5km/h 11.5mph /  18.5km/h 65% 0.00in /  0mm WeatherDisplay:10.37 W/m2 SCT
13:39 74.6 °F /  23.7 °C 62.1 °F /  16.7 °C 30.21in /  1022.9hPa SSW 11.5mph /  18.5km/h 11.5mph /  18.5km/h 65% 0.00in /  0mm WeatherDisplay:10.37 W/m2 SCT
13:44 74.8 °F /  23.8 °C 61.8 °F /  16.6 °C 30.20in /  1022.6hPa WSW 11.5mph /  18.5km/h 11.5mph /  18.5km/h 64% 0.00in /  0mm WeatherDisplay:10.37 W/m2 SCT
13:49 74.9 °F /  23.8 °C 61.5 °F /  16.4 °C 30.20in /  1022.6hPa West 4.6mph /  7.4km/h 4.6mph /  7.4km/h 63% 0.00in /  0mm WeatherDisplay:10.37 W/m2 SCT
13:54 75.2 °F /  24 °C 62.2 °F /  16.8 °C 30.20in /  1022.6hPa SW 5.8mph /  9.3km/h 5.8mph /  9.3km/h 64% 0.00in /  0mm WeatherDisplay:10.37 W/m2 SCT
13:59 75.2 °F /  24 °C 60.4 °F /  15.8 °C 30.20in /  1022.6hPa SW 5.8mph /  9.3km/h 5.8mph /  9.3km/h 60% 0.00in /  0mm WeatherDisplay:10.37 W/m2 SCT
14:04 75.3 °F /  24.1 °C 61.4 °F /  16.3 °C 30.19in /  1022.2hPa South 5.8mph /  9.3km/h 5.8mph /  9.3km/h 62% 0.00in /  0mm WeatherDisplay:10.37 W/m2 CLR
14:09 75.6 °F /  24.2 °C 61.7 °F /  16.5 °C 30.19in /  1022.2hPa SSW 10.0mph /  16.1km/h 10.0mph /  16.1km/h 62% 0.00in /  0mm WeatherDisplay:10.37 W/m2 CLR
14:14 75.8 °F /  24.3 °C 61.8 °F /  16.6 °C 30.19in /  1022.2hPa North 3.5mph /  5.6km/h 3.5mph /  5.6km/h 62% 0.00in /  0mm WeatherDisplay:10.37 W/m2 CLR
14:19 76.8 °F /  24.9 °C 62.3 °F /  16.8 °C 30.18in /  1021.9hPa SSW 6.9mph /  11.1km/h 6.9mph /  11.1km/h 61% 0.00in /  0mm WeatherDisplay:10.37 W/m2 CLR
14:24 77.0 °F /  25 °C 61.1 °F /  16.2 °C 30.18in /  1021.9hPa SSW 10.0mph /  16.1km/h 10.0mph /  16.1km/h 58% 0.00in /  0mm WeatherDisplay:10.37 W/m2 CLR
14:29 77.2 °F /  25.1 °C 61.3 °F /  16.3 °C 30.18in /  1021.9hPa WSW 8.1mph /  13km/h 8.1mph /  13km/h 58% 0.00in /  0mm WeatherDisplay:10.37 W/m2 CLR
14:34 77.1 °F /  25.1 °C 60.7 °F /  15.9 °C 30.17in /  1021.6hPa SW 8.1mph /  13km/h 8.1mph /  13km/h 57% 0.00in /  0mm WeatherDisplay:10.37 W/m2 CLR
14:39 77.0 °F /  25 °C 60.6 °F /  15.9 °C 30.17in /  1021.6hPa South 8.1mph /  13km/h 8.1mph /  13km/h 57% 0.00in /  0mm WeatherDisplay:10.37 W/m2 CLR
14:44 76.3 °F /  24.6 °C 59.9 °F /  15.5 °C 30.17in /  1021.6hPa WNW 11.5mph /  18.5km/h 11.5mph /  18.5km/h 57% 0.00in /  0mm WeatherDisplay:10.37 W/m2 CLR
14:49 76.6 °F /  24.8 °C 60.2 °F /  15.7 °C 30.17in /  1021.6hPa NW 8.1mph /  13km/h 8.1mph /  13km/h 57% 0.00in /  0mm WeatherDisplay:10.37 W/m2 CLR
14:54 76.6 °F /  24.8 °C 59.2 °F /  15.1 °C 30.17in /  1021.6hPa South 11.0mph /  17.7km/h 11.0mph /  17.7km/h 55% 0.00in /  0mm WeatherDisplay:10.37 W/m2 CLR
14:59 76.0 °F /  24.4 °C 58.7 °F /  14.8 °C 30.17in /  1021.6hPa SW 8.0mph /  12.9km/h 8.0mph /  12.9km/h 55% 0.00in /  0mm WeatherDisplay:10.37 W/m2 CLR
15:04 75.2 °F /  24 °C 58.9 °F /  14.9 °C 30.17in /  1021.6hPa SW 5.8mph /  9.3km/h 5.8mph /  9.3km/h 57% 0.00in /  0mm WeatherDisplay:10.37 W/m2 SCT
15:09 75.6 °F /  24.2 °C 59.3 °F /  15.2 °C 30.16in /  1021.2hPa WSW 5.8mph /  9.3km/h 5.8mph /  9.3km/h 57% 0.00in /  0mm WeatherDisplay:10.37 W/m2 SCT
15:14 76.4 °F /  24.7 °C 59.5 °F /  15.3 °C 30.17in /  1021.6hPa South 6.0mph /  9.7km/h 6.0mph /  9.7km/h 56% 0.00in /  0mm WeatherDisplay:10.37 W/m2 SCT
15:19 76.9 °F /  24.9 °C 59.5 °F /  15.3 °C 30.16in /  1021.2hPa South 8.1mph /  13km/h 8.1mph /  13km/h 55% 0.00in /  0mm WeatherDisplay:10.37 W/m2 SCT
15:24 76.5 °F /  24.7 °C 59.1 °F /  15.1 °C 30.16in /  1021.2hPa SW 5.8mph /  9.3km/h 5.8mph /  9.3km/h 55% 0.00in /  0mm WeatherDisplay:10.37 W/m2 CLR
15:29 76.8 °F /  24.9 °C 59.4 °F /  15.2 °C 30.16in /  1021.2hPa WSW 10.0mph /  16.1km/h 10.0mph /  16.1km/h 55% 0.00in /  0mm WeatherDisplay:10.37 W/m2 CLR
15:32 76.8 °F /  24.9 °C 58.9 °F /  14.9 °C 30.16in /  1021.2hPa SW 10.4mph /  16.7km/h 10.4mph /  16.7km/h 54% 0.00in /  0mm WeatherDisplay:10.37 W/m2 CLR
15:37 76.9 °F /  24.9 °C 59.0 °F /  15 °C 30.16in /  1021.2hPa South 5.8mph /  9.3km/h 5.8mph /  9.3km/h 54% 0.00in /  0mm WeatherDisplay:10.37 W/m2 CLR
15:42 77.4 °F /  25.2 °C 60.0 °F /  15.6 °C 30.16in /  1021.2hPa SW 4.6mph /  7.4km/h 4.6mph /  7.4km/h 55% 0.00in /  0mm WeatherDisplay:10.37 W/m2 CLR
15:47 77.4 °F /  25.2 °C 59.5 °F /  15.3 °C 30.16in /  1021.2hPa SE 3.5mph /  5.6km/h 3.5mph /  5.6km/h 54% 0.00in /  0mm WeatherDisplay:10.37 W/m2 CLR
15:52 77.0 °F /  25 °C 60.1 °F /  15.6 °C 30.15in /  1020.9hPa SW 8.0mph /  12.9km/h 8.0mph /  12.9km/h 56% 0.00in /  0mm WeatherDisplay:10.37 W/m2 CLR
15:57 76.7 °F /  24.8 °C 59.8 °F /  15.4 °C 30.15in /  1020.9hPa SW 6.9mph /  11.1km/h 6.9mph /  11.1km/h 56% 0.00in /  0mm WeatherDisplay:10.37 W/m2 CLR
16:02 76.6 °F /  24.8 °C 59.7 °F /  15.4 °C 30.15in /  1020.9hPa SW 4.6mph /  7.4km/h 4.6mph /  7.4km/h 56% 0.00in /  0mm WeatherDisplay:10.37 W/m2 CLR
16:07 76.5 °F /  24.7 °C 59.6 °F /  15.3 °C 30.15in /  1020.9hPa SW 4.6mph /  7.4km/h 4.6mph /  7.4km/h 56% 0.00in /  0mm WeatherDisplay:10.37 W/m2 CLR
16:12 76.5 °F /  24.7 °C 59.1 °F /  15.1 °C 30.15in /  1020.9hPa West 8.1mph /  13km/h 8.1mph /  13km/h 55% 0.00in /  0mm WeatherDisplay:10.37 W/m2 CLR
16:17 76.9 °F /  24.9 °C 59.5 °F /  15.3 °C 30.15in /  1020.9hPa SW 6.0mph /  9.7km/h 6.0mph /  9.7km/h 55% 0.00in /  0mm WeatherDisplay:10.37 W/m2 CLR
16:22 77.2 °F /  25.1 °C 60.3 °F /  15.7 °C 30.15in /  1020.9hPa WSW 5.8mph /  9.3km/h 5.8mph /  9.3km/h 56% 0.00in /  0mm WeatherDisplay:10.37 W/m2 CLR
16:27 77.4 °F /  25.2 °C 58.9 °F /  14.9 °C 30.14in /  1020.5hPa WSW 4.6mph /  7.4km/h 4.6mph /  7.4km/h 53% 0.00in /  0mm WeatherDisplay:10.37 W/m2 CLR
16:32 77.3 °F /  25.2 °C 58.8 °F /  14.9 °C 30.14in /  1020.5hPa SSW 8.1mph /  13km/h 8.1mph /  13km/h 53% 0.00in /  0mm WeatherDisplay:10.37 W/m2 CLR
16:37 77.0 °F /  25 °C 58.6 °F /  14.8 °C 30.14in /  1020.5hPa SSW 7.0mph /  11.3km/h 7.0mph /  11.3km/h 53% 0.00in /  0mm WeatherDisplay:10.37 W/m2 CLR
16:42 77.0 °F /  25 °C 59.6 °F /  15.3 °C 30.14in /  1020.5hPa SW 7.0mph /  11.3km/h 7.0mph /  11.3km/h 55% 0.00in /  0mm WeatherDisplay:10.37 W/m2 CLR
16:47 77.2 °F /  25.1 °C 59.8 °F /  15.4 °C 30.14in /  1020.5hPa SW 5.0mph /  8km/h 5.0mph /  8km/h 55% 0.00in /  0mm WeatherDisplay:10.37 W/m2 CLR
16:52 76.9 °F /  24.9 °C 59.5 °F /  15.3 °C 30.14in /  1020.5hPa SW 6.9mph /  11.1km/h 6.9mph /  11.1km/h 55% 0.00in /  0mm WeatherDisplay:10.37 W/m2 CLR
16:57 77.4 °F /  25.2 °C 59.5 °F /  15.3 °C 30.14in /  1020.5hPa SSW 5.0mph /  8km/h 5.0mph /  8km/h 54% 0.00in /  0mm WeatherDisplay:10.37 W/m2 CLR
17:02 77.1 °F /  25.1 °C 59.2 °F /  15.1 °C 30.14in /  1020.5hPa SW 5.8mph /  9.3km/h 5.8mph /  9.3km/h 54% 0.00in /  0mm WeatherDisplay:10.37 W/m2 CLR
17:07 77.2 °F /  25.1 °C 59.3 °F /  15.2 °C 30.14in /  1020.5hPa West 5.8mph /  9.3km/h 5.8mph /  9.3km/h 54% 0.00in /  0mm WeatherDisplay:10.37 W/m2 CLR
17:12 77.4 °F /  25.2 °C 58.9 °F /  14.9 °C 30.14in /  1020.5hPa West 5.8mph /  9.3km/h 5.8mph /  9.3km/h 53% 0.00in /  0mm WeatherDisplay:10.37 W/m2 CLR
17:17 77.1 °F /  25.1 °C 58.1 °F /  14.5 °C 30.15in /  1020.9hPa SW 10.0mph /  16.1km/h 10.0mph /  16.1km/h 52% 0.00in /  0mm WeatherDisplay:10.37 W/m2 CLR
17:22 76.8 °F /  24.9 °C 58.4 °F /  14.7 °C 30.15in /  1020.9hPa SSW 10.4mph /  16.7km/h 10.4mph /  16.7km/h 53% 0.00in /  0mm WeatherDisplay:10.37 W/m2 CLR
17:27 76.8 °F /  24.9 °C 58.4 °F /  14.7 °C 30.15in /  1020.9hPa SW 4.6mph /  7.4km/h 4.6mph /  7.4km/h 53% 0.00in /  0mm WeatherDisplay:10.37 W/m2 CLR
17:32 76.8 °F /  24.9 °C 58.9 °F /  14.9 °C 30.15in /  1020.9hPa SSE 5.8mph /  9.3km/h 5.8mph /  9.3km/h 54% 0.00in /  0mm WeatherDisplay:10.37 W/m2 CLR
17:37 76.8 °F /  24.9 °C 58.9 °F /  14.9 °C 30.15in /  1020.9hPa WSW 4.6mph /  7.4km/h 4.6mph /  7.4km/h 54% 0.00in /  0mm WeatherDisplay:10.37 W/m2 CLR
17:42 76.9 °F /  24.9 °C 59.0 °F /  15 °C 30.15in /  1020.9hPa SW 3.5mph /  5.6km/h 3.5mph /  5.6km/h 54% 0.00in /  0mm WeatherDisplay:10.37 W/m2 CLR
17:47 76.7 °F /  24.8 °C 58.8 °F /  14.9 °C 30.15in /  1020.9hPa WSW 4.0mph /  6.4km/h 4.0mph /  6.4km/h 54% 0.00in /  0mm WeatherDisplay:10.37 W/m2 CLR
17:52 76.3 °F /  24.6 °C 58.4 °F /  14.7 °C 30.15in /  1020.9hPa SW 3.5mph /  5.6km/h 3.5mph /  5.6km/h 54% 0.00in /  0mm WeatherDisplay:10.37 W/m2 CLR
17:57 76.0 °F /  24.4 °C 58.2 °F /  14.6 °C 30.15in /  1020.9hPa SW 8.1mph /  13km/h 8.1mph /  13km/h 54% 0.00in /  0mm WeatherDisplay:10.37 W/m2 CLR
18:02 75.9 °F /  24.4 °C 58.1 °F /  14.5 °C 30.15in /  1020.9hPa WSW 8.1mph /  13km/h 8.1mph /  13km/h 54% 0.00in /  0mm WeatherDisplay:10.37 W/m2 CLR
18:07 76.0 °F /  24.4 °C 58.2 °F /  14.6 °C 30.15in /  1020.9hPa SSW 2.3mph /  3.7km/h 2.3mph /  3.7km/h 54% 0.00in /  0mm WeatherDisplay:10.37 W/m2 CLR
18:12 76.0 °F /  24.4 °C 58.7 °F /  14.8 °C 30.15in /  1020.9hPa SSW 2.3mph /  3.7km/h 2.3mph /  3.7km/h 55% 0.00in /  0mm WeatherDisplay:10.37 W/m2 CLR
18:17 75.9 °F /  24.4 °C 58.1 °F /  14.5 °C 30.15in /  1020.9hPa SW 3.5mph /  5.6km/h 3.5mph /  5.6km/h 54% 0.00in /  0mm WeatherDisplay:10.37 W/m2 CLR
18:22 75.5 °F /  24.2 °C 58.7 °F /  14.8 °C 30.15in /  1020.9hPa SW 3.5mph /  5.6km/h 3.5mph /  5.6km/h 56% 0.00in /  0mm WeatherDisplay:10.37 W/m2 CLR
18:27 75.4 °F /  24.1 °C 59.1 °F /  15.1 °C 30.15in /  1020.9hPa SW 3.5mph /  5.6km/h 3.5mph /  5.6km/h 57% 0.00in /  0mm WeatherDisplay:10.37 W/m2 CLR
18:32 75.1 °F /  23.9 °C 58.8 °F /  14.9 °C 30.15in /  1020.9hPa SSW 3.5mph /  5.6km/h 3.5mph /  5.6km/h 57% 0.00in /  0mm WeatherDisplay:10.37 W/m2 CLR
18:37 74.8 °F /  23.8 °C 58.5 °F /  14.7 °C 30.15in /  1020.9hPa SSW 1.2mph /  1.9km/h 1.2mph /  1.9km/h 57% 0.00in /  0mm WeatherDisplay:10.37 W/m2 CLR
18:42 74.2 °F /  23.4 °C 58.5 °F /  14.7 °C 30.15in /  1020.9hPa SSW 1.2mph /  1.9km/h   58% 0.00in /  0mm WeatherDisplay:10.37 W/m2 CLR
18:47 73.7 °F /  23.2 °C 58.9 °F /  14.9 °C 30.15in /  1020.9hPa SSW 1.2mph /  1.9km/h 1.2mph /  1.9km/h 60% 0.00in /  0mm WeatherDisplay:10.37 W/m2 CLR
18:52 73.2 °F /  22.9 °C 58.9 °F /  14.9 °C 30.15in /  1020.9hPa SSW 1.2mph /  1.9km/h 1.2mph /  1.9km/h 61% 0.00in /  0mm WeatherDisplay:10.37 W/m2 CLR
18:57 72.6 °F /  22.6 °C 58.8 °F /  14.9 °C 30.15in /  1020.9hPa SSW 1.2mph /  1.9km/h   62% 0.00in /  0mm WeatherDisplay:10.37 W/m2 CLR
19:02 72.1 °F /  22.3 °C 58.8 °F /  14.9 °C 30.15in /  1020.9hPa Calm     63% 0.00in /  0mm WeatherDisplay:10.37 W/m2 CLR
19:07 71.2 °F /  21.8 °C 58.8 °F /  14.9 °C 30.15in /  1020.9hPa Calm     65% 0.00in /  0mm WeatherDisplay:10.37 W/m2 CLR
19:12 70.7 °F /  21.5 °C 58.8 °F /  14.9 °C 30.15in /  1020.9hPa Calm     66% 0.00in /  0mm WeatherDisplay:10.37 W/m2 CLR
19:17 70.0 °F /  21.1 °C 58.5 °F /  14.7 °C 30.15in /  1020.9hPa Calm     67% 0.00in /  0mm WeatherDisplay:10.37 W/m2 CLR
19:22 69.5 °F /  20.8 °C 58.5 °F /  14.7 °C 30.15in /  1020.9hPa Calm     68% 0.00in /  0mm WeatherDisplay:10.37 W/m2 CLR
19:27 68.9 °F /  20.5 °C 58.3 °F /  14.6 °C 30.16in /  1021.2hPa Calm     69% 0.00in /  0mm WeatherDisplay:10.37 W/m2 CLR
19:32 68.3 °F /  20.2 °C 58.1 °F /  14.5 °C 30.16in /  1021.2hPa SSW 1.0mph /  1.6km/h   70% 0.00in /  0mm WeatherDisplay:10.37 W/m2 CLR
19:37 67.7 °F /  19.8 °C 58.3 °F /  14.6 °C 30.16in /  1021.2hPa SSW 1.2mph /  1.9km/h 1.2mph /  1.9km/h 72% 0.00in /  0mm WeatherDisplay:10.37 W/m2 CLR
19:42 66.9 °F /  19.4 °C 58.3 °F /  14.6 °C 30.16in /  1021.2hPa SSW 1.2mph /  1.9km/h 1.2mph /  1.9km/h 74% 0.00in /  0mm WeatherDisplay:10.37 W/m2 CLR
19:47 66.4 °F /  19.1 °C 58.2 °F /  14.6 °C 30.16in /  1021.2hPa SSW 1.2mph /  1.9km/h   75% 0.00in /  0mm WeatherDisplay:10.37 W/m2 CLR
19:52 65.9 °F /  18.8 °C 58.1 °F /  14.5 °C 30.16in /  1021.2hPa Calm     76% 0.00in /  0mm WeatherDisplay:10.37 W/m2 CLR
19:57 65.4 °F /  18.6 °C 58.0 °F /  14.4 °C 30.16in /  1021.2hPa SSW 1.2mph /  1.9km/h 1.2mph /  1.9km/h 77% 0.00in /  0mm WeatherDisplay:10.37 W/m2 CLR
20:02 65.1 °F /  18.4 °C 58.1 °F /  14.5 °C 30.16in /  1021.2hPa SSW 1.2mph /  1.9km/h 1.2mph /  1.9km/h 78% 0.00in /  0mm WeatherDisplay:10.37 W/m2 CLR
20:07 64.5 °F /  18.1 °C 57.8 °F /  14.3 °C 30.16in /  1021.2hPa SSW 1.2mph /  1.9km/h 1.2mph /  1.9km/h 79% 0.00in /  0mm WeatherDisplay:10.37 W/m2 CLR
20:12 64.1 °F /  17.8 °C 57.8 °F /  14.3 °C 30.16in /  1021.2hPa Calm     80% 0.00in /  0mm WeatherDisplay:10.37 W/m2 CLR
20:17 63.8 °F /  17.7 °C 57.5 °F /  14.2 °C 30.16in /  1021.2hPa Calm     80% 0.00in /  0mm WeatherDisplay:10.37 W/m2 CLR
20:22 63.5 °F /  17.5 °C 57.6 °F /  14.2 °C 30.17in /  1021.6hPa Calm     81% 0.00in /  0mm WeatherDisplay:10.37 W/m2 CLR
20:27 63.1 °F /  17.3 °C 57.5 °F /  14.2 °C 30.17in /  1021.6hPa Calm     82% 0.00in /  0mm WeatherDisplay:10.37 W/m2 CLR
20:32 62.8 °F /  17.1 °C 57.2 °F /  14 °C 30.17in /  1021.6hPa Calm     82% 0.00in /  0mm WeatherDisplay:10.37 W/m2 CLR
20:37 62.4 °F /  16.9 °C 57.2 °F /  14 °C 30.17in /  1021.6hPa Calm     83% 0.00in /  0mm WeatherDisplay:10.37 W/m2 CLR
20:42 62.1 °F /  16.7 °C 57.2 °F /  14 °C 30.17in /  1021.6hPa Calm     84% 0.00in /  0mm WeatherDisplay:10.37 W/m2 CLR
20:47 61.8 °F /  16.6 °C 57.2 °F /  14 °C 30.17in /  1021.6hPa Calm     85% 0.00in /  0mm WeatherDisplay:10.37 W/m2 CLR
20:52 61.4 °F /  16.3 °C 56.8 °F /  13.8 °C 30.17in /  1021.6hPa Calm     85% 0.00in /  0mm WeatherDisplay:10.37 W/m2 CLR
20:57 61.2 °F /  16.2 °C 57.0 °F /  13.9 °C 30.17in /  1021.6hPa SSW 1.0mph /  1.6km/h   86% 0.00in /  0mm WeatherDisplay:10.37 W/m2 CLR
21:02 60.9 °F /  16.1 °C 56.7 °F /  13.7 °C 30.17in /  1021.6hPa SSW 1.2mph /  1.9km/h   86% 0.00in /  0mm WeatherDisplay:10.37 W/m2 CLR
21:07 60.7 °F /  15.9 °C 56.5 °F /  13.6 °C 30.17in /  1021.6hPa Calm     86% 0.00in /  0mm WeatherDisplay:10.37 W/m2 CLR
21:12 60.5 °F /  15.8 °C 56.3 °F /  13.5 °C 30.17in /  1021.6hPa SSW 1.2mph /  1.9km/h 1.2mph /  1.9km/h 86% 0.00in /  0mm WeatherDisplay:10.37 W/m2 CLR
21:17 60.3 °F /  15.7 °C 56.4 °F /  13.6 °C 30.17in /  1021.6hPa SSW 1.2mph /  1.9km/h   87% 0.00in /  0mm WeatherDisplay:10.37 W/m2 CLR
21:22 60.1 °F /  15.6 °C 56.2 °F /  13.4 °C 30.16in /  1021.2hPa Calm     87% 0.00in /  0mm WeatherDisplay:10.37 W/m2 CLR
21:27 59.9 °F /  15.5 °C 56.3 °F /  13.5 °C 30.16in /  1021.2hPa Calm     88% 0.00in /  0mm WeatherDisplay:10.37 W/m2 CLR
21:32 59.8 °F /  15.4 °C 56.2 °F /  13.4 °C 30.16in /  1021.2hPa Calm     88% 0.00in /  0mm WeatherDisplay:10.37 W/m2 CLR
21:37 59.7 °F /  15.4 °C 56.1 °F /  13.4 °C 30.16in /  1021.2hPa Calm     88% 0.00in /  0mm WeatherDisplay:10.37 W/m2 CLR
21:42 59.6 °F /  15.3 °C 56.0 °F /  13.3 °C 30.16in /  1021.2hPa Calm     88% 0.00in /  0mm WeatherDisplay:10.37 W/m2 CLR
21:47 59.5 °F /  15.3 °C 55.9 °F /  13.3 °C 30.16in /  1021.2hPa ESE 2.0mph /  3.2km/h 2.0mph /  3.2km/h 88% 0.00in /  0mm WeatherDisplay:10.37 W/m2 CLR
21:52 59.4 °F /  15.2 °C 56.2 °F /  13.4 °C 30.16in /  1021.2hPa ESE 3.5mph /  5.6km/h 3.5mph /  5.6km/h 89% 0.00in /  0mm WeatherDisplay:10.37 W/m2 CLR
21:57 59.3 °F /  15.2 °C 55.7 °F /  13.2 °C 30.16in /  1021.2hPa ESE 2.3mph /  3.7km/h 2.3mph /  3.7km/h 88% 0.00in /  0mm WeatherDisplay:10.37 W/m2 CLR
22:02 59.2 °F /  15.1 °C 56.0 °F /  13.3 °C 30.16in /  1021.2hPa Calm     89% 0.00in /  0mm WeatherDisplay:10.37 W/m2 CLR
22:07 59.1 °F /  15.1 °C 55.9 °F /  13.3 °C 30.17in /  1021.6hPa Calm     89% 0.00in /  0mm WeatherDisplay:10.37 W/m2 CLR
22:12 58.8 °F /  14.9 °C 55.6 °F /  13.1 °C 30.16in /  1021.2hPa Calm     89% 0.00in /  0mm WeatherDisplay:10.37 W/m2 CLR
22:17 58.6 °F /  14.8 °C 55.4 °F /  13 °C 30.16in /  1021.2hPa Calm     89% 0.00in /  0mm WeatherDisplay:10.37 W/m2 CLR
22:22 58.4 °F /  14.7 °C 55.2 °F /  12.9 °C 30.16in /  1021.2hPa Calm     89% 0.00in /  0mm WeatherDisplay:10.37 W/m2 CLR
22:27 58.2 °F /  14.6 °C 55.0 °F /  12.8 °C 30.16in /  1021.2hPa Calm     89% 0.00in /  0mm WeatherDisplay:10.37 W/m2 CLR
22:32 58.1 °F /  14.5 °C 55.2 °F /  12.9 °C 30.16in /  1021.2hPa Calm     90% 0.00in /  0mm WeatherDisplay:10.37 W/m2 CLR
22:37 58.1 °F /  14.5 °C 55.2 °F /  12.9 °C 30.16in /  1021.2hPa Calm     90% 0.00in /  0mm WeatherDisplay:10.37 W/m2 CLR
22:42 58.0 °F /  14.4 °C 55.1 °F /  12.8 °C 30.16in /  1021.2hPa Calm     90% 0.00in /  0mm WeatherDisplay:10.37 W/m2 CLR
22:47 57.9 °F /  14.4 °C 55.0 °F /  12.8 °C 30.16in /  1021.2hPa Calm     90% 0.00in /  0mm WeatherDisplay:10.37 W/m2 CLR
22:52 57.9 °F /  14.4 °C 55.0 °F /  12.8 °C 30.16in /  1021.2hPa Calm     90% 0.00in /  0mm WeatherDisplay:10.37 W/m2 CLR
22:57 57.7 °F /  14.3 °C 54.8 °F /  12.7 °C 30.16in /  1021.2hPa Calm     90% 0.00in /  0mm WeatherDisplay:10.37 W/m2 CLR
23:02 57.7 °F /  14.3 °C 54.8 °F /  12.7 °C 30.16in /  1021.2hPa Calm     90% 0.00in /  0mm WeatherDisplay:10.37 W/m2 CLR
23:07 57.5 °F /  14.2 °C 54.6 °F /  12.6 °C 30.16in /  1021.2hPa Calm     90% 0.00in /  0mm WeatherDisplay:10.37 W/m2 CLR
23:12 57.4 °F /  14.1 °C 54.5 °F /  12.5 °C 30.16in /  1021.2hPa Calm     90% 0.00in /  0mm WeatherDisplay:10.37 W/m2 CLR
23:17 57.1 °F /  13.9 °C 54.5 °F /  12.5 °C 30.15in /  1020.9hPa Calm     91% 0.00in /  0mm WeatherDisplay:10.37 W/m2 CLR
23:22 56.9 °F /  13.8 °C 54.0 °F /  12.2 °C 30.15in /  1020.9hPa Calm     90% 0.00in /  0mm WeatherDisplay:10.37 W/m2 CLR
23:27 56.7 °F /  13.7 °C 54.1 °F /  12.3 °C 30.15in /  1020.9hPa Calm     91% 0.00in /  0mm WeatherDisplay:10.37 W/m2 CLR
23:32 56.6 °F /  13.7 °C 54.0 °F /  12.2 °C 30.16in /  1021.2hPa Calm     91% 0.00in /  0mm WeatherDisplay:10.37 W/m2 CLR
23:37 56.5 °F /  13.6 °C 53.9 °F /  12.2 °C 30.15in /  1020.9hPa Calm     91% 0.00in /  0mm WeatherDisplay:10.37 W/m2 CLR
23:42 56.4 °F /  13.6 °C 53.8 °F /  12.1 °C 30.15in /  1020.9hPa Calm     91% 0.00in /  0mm WeatherDisplay:10.37 W/m2 CLR
23:47 56.4 °F /  13.6 °C 53.8 °F /  12.1 °C 30.15in /  1020.9hPa Calm     91% 0.00in /  0mm WeatherDisplay:10.37 W/m2 CLR
23:52 56.4 °F /  13.6 °C 53.8 °F /  12.1 °C 30.15in /  1020.9hPa Calm     91% 0.00in /  0mm WeatherDisplay:10.37 W/m2 CLR
23:57 56.4 °F /  13.6 °C 53.8 °F /  12.1 °C 30.15in /  1020.9hPa Calm     91% 0.00in /  0mm WeatherDisplay:10.37 W/m2 CLR
Smyth Weather
Compliments of Weather Underground - 3 mb